createdAt,value
2023-03-22T00:00:09.788Z,0.00
2023-03-22T00:01:09.768Z,0.00
2023-03-22T00:02:09.751Z,0.00
2023-03-22T00:03:09.744Z,0.00
2023-03-22T00:04:09.810Z,0.00
2023-03-22T00:05:14.750Z,0.00
2023-03-22T00:06:09.706Z,0.00
2023-03-22T00:07:09.694Z,0.00
2023-03-22T00:08:09.688Z,0.00
2023-03-22T00:09:09.672Z,0.00
2023-03-22T00:10:09.710Z,0.00
2023-03-22T00:11:09.656Z,0.00
2023-03-22T00:12:09.667Z,0.00
2023-03-22T00:13:09.633Z,0.00
2023-03-22T00:14:09.619Z,0.00
2023-03-22T00:15:09.627Z,0.00
2023-03-22T00:16:14.712Z,0.00
2023-03-22T00:17:09.584Z,0.00
2023-03-22T00:18:09.573Z,0.00
2023-03-22T00:19:09.562Z,0.00
2023-03-22T00:20:09.561Z,0.00
2023-03-22T00:21:09.542Z,0.00
2023-03-22T00:22:09.553Z,0.00
2023-03-22T00:23:09.520Z,0.00
2023-03-22T00:24:09.511Z,0.00
2023-03-22T00:25:09.506Z,0.00
2023-03-22T00:26:09.485Z,0.00
2023-03-22T00:27:14.523Z,0.00
2023-03-22T00:28:09.468Z,0.00
2023-03-22T00:29:09.463Z,0.00
2023-03-22T00:30:09.452Z,0.00
2023-03-22T00:31:09.505Z,0.00
2023-03-22T00:32:09.418Z,0.00
2023-03-22T00:33:09.418Z,0.00
2023-03-22T00:34:09.404Z,0.00
2023-03-22T00:35:09.423Z,0.00
2023-03-22T00:36:09.374Z,0.00
2023-03-22T00:37:09.368Z,0.00
2023-03-22T00:38:14.502Z,0.00
2023-03-22T00:39:09.344Z,0.00
2023-03-22T00:40:09.350Z,0.00
2023-03-22T00:41:09.336Z,0.00
2023-03-22T00:42:09.312Z,0.00
2023-03-22T00:43:09.322Z,0.00
2023-03-22T00:44:09.300Z,0.00
2023-03-22T00:45:09.289Z,0.00
2023-03-22T00:46:09.405Z,0.00
2023-03-22T00:47:09.298Z,0.00
2023-03-22T00:48:09.260Z,0.00
2023-03-22T00:49:14.252Z,0.00
2023-03-22T00:50:09.234Z,0.00
2023-03-22T00:51:09.221Z,0.00
2023-03-22T00:52:09.197Z,0.00
2023-03-22T00:53:09.196Z,0.00
2023-03-22T00:54:09.181Z,0.00
2023-03-22T00:55:09.188Z,0.00
2023-03-22T00:56:09.161Z,0.00
2023-03-22T00:57:09.147Z,0.00
2023-03-22T00:58:09.128Z,0.00
2023-03-22T00:59:09.141Z,0.00
2023-03-22T01:00:14.146Z,0.00
2023-03-22T01:01:09.198Z,0.00
2023-03-22T01:02:09.085Z,0.00
2023-03-22T01:03:09.106Z,0.00
2023-03-22T01:04:09.061Z,0.00
2023-03-22T01:05:09.081Z,0.00
2023-03-22T01:06:09.038Z,0.00
2023-03-22T01:07:09.028Z,0.00
2023-03-22T01:08:09.017Z,0.00
2023-03-22T01:09:09.004Z,0.00
2023-03-22T01:10:09.003Z,0.00
2023-03-22T01:11:14.038Z,0.00
2023-03-22T01:12:08.971Z,0.00
2023-03-22T01:13:08.971Z,0.00
2023-03-22T01:14:08.949Z,0.00
2023-03-22T01:15:08.970Z,0.00
2023-03-22T01:16:08.978Z,0.00
2023-03-22T01:17:08.932Z,0.00
2023-03-22T01:18:08.923Z,0.00
2023-03-22T01:19:08.894Z,0.00
2023-03-22T01:20:08.889Z,0.00
2023-03-22T01:21:08.865Z,0.00
2023-03-22T01:22:13.875Z,0.00
2023-03-22T01:23:08.863Z,0.00
2023-03-22T01:24:08.832Z,0.00
2023-03-22T01:25:08.837Z,0.00
2023-03-22T01:26:08.810Z,0.00
2023-03-22T01:27:08.799Z,0.00
2023-03-22T01:28:08.793Z,0.00
2023-03-22T01:29:08.789Z,0.00
2023-03-22T01:30:08.764Z,0.00
2023-03-22T01:31:08.877Z,0.00
2023-03-22T01:32:08.746Z,0.00
2023-03-22T01:33:13.752Z,0.00
2023-03-22T01:34:08.720Z,0.00
2023-03-22T01:35:08.716Z,0.00
2023-03-22T01:36:08.713Z,0.00
2023-03-22T01:37:08.686Z,0.00
2023-03-22T01:38:08.683Z,0.00
2023-03-22T01:39:08.664Z,0.00
2023-03-22T01:40:08.664Z,0.00
2023-03-22T01:41:08.690Z,0.00
2023-03-22T01:42:08.638Z,0.00
2023-03-22T01:43:08.625Z,0.00
2023-03-22T01:44:13.630Z,0.00
2023-03-22T01:45:08.609Z,0.00
2023-03-22T01:46:08.622Z,0.00
2023-03-22T01:47:08.615Z,0.00
2023-03-22T01:48:08.623Z,0.00
2023-03-22T01:49:08.654Z,0.00
2023-03-22T01:50:08.556Z,0.00
2023-03-22T01:51:08.545Z,0.00
2023-03-22T01:52:08.526Z,0.00
2023-03-22T01:53:08.569Z,0.00
2023-03-22T01:54:08.499Z,0.00
2023-03-22T01:55:13.512Z,0.00
2023-03-22T01:56:08.489Z,0.00
2023-03-22T01:57:08.468Z,0.00
2023-03-22T01:58:08.464Z,0.00
2023-03-22T01:59:08.480Z,0.00
2023-03-22T02:00:08.435Z,0.00
2023-03-22T02:01:08.513Z,0.00
2023-03-22T02:02:08.413Z,0.00
2023-03-22T02:03:08.426Z,0.00
2023-03-22T02:04:08.391Z,0.00
2023-03-22T02:05:08.409Z,0.00
2023-03-22T02:06:13.401Z,0.00
2023-03-22T02:07:08.357Z,0.00
2023-03-22T02:08:08.345Z,0.00
2023-03-22T02:09:08.350Z,0.00
2023-03-22T02:10:08.326Z,0.00
2023-03-22T02:11:08.357Z,0.00
2023-03-22T02:12:08.302Z,0.00
2023-03-22T02:13:08.291Z,0.00
2023-03-22T02:14:08.279Z,0.00
2023-03-22T02:15:08.268Z,0.00
2023-03-22T02:16:08.319Z,0.00
2023-03-22T02:17:13.317Z,0.00
2023-03-22T02:18:08.232Z,0.00
2023-03-22T02:19:08.260Z,0.00
2023-03-22T02:20:08.213Z,0.00
2023-03-22T02:21:08.208Z,0.00
2023-03-22T02:22:08.186Z,0.00
2023-03-22T02:23:08.202Z,0.00
2023-03-22T02:24:08.165Z,0.00
2023-03-22T02:25:08.162Z,0.00
2023-03-22T02:26:08.151Z,0.00
2023-03-22T02:27:08.134Z,0.00
2023-03-22T02:28:13.143Z,0.00
2023-03-22T02:29:08.153Z,0.00
2023-03-22T02:30:08.100Z,0.00
2023-03-22T02:31:08.147Z,0.00
2023-03-22T02:32:08.083Z,0.00
2023-03-22T02:33:08.066Z,0.00
2023-03-22T02:34:08.052Z,0.00
2023-03-22T02:35:08.085Z,0.00
2023-03-22T02:36:08.053Z,0.00
2023-03-22T02:37:08.023Z,0.00
2023-03-22T02:38:08.009Z,0.00
2023-03-22T02:39:13.024Z,0.00
2023-03-22T02:40:08.006Z,0.00
2023-03-22T02:41:08.006Z,0.00
2023-03-22T02:42:07.965Z,0.00
2023-03-22T02:43:07.954Z,0.00
2023-03-22T02:44:07.964Z,0.00
2023-03-22T02:45:07.936Z,0.00
2023-03-22T02:46:07.980Z,0.00
2023-03-22T02:47:07.929Z,0.00
2023-03-22T02:48:08.102Z,0.00
2023-03-22T02:49:07.912Z,0.00
2023-03-22T02:50:12.920Z,0.00
2023-03-22T02:51:07.880Z,0.00
2023-03-22T02:52:07.851Z,0.00
2023-03-22T02:53:07.855Z,0.00
2023-03-22T02:54:07.828Z,0.00
2023-03-22T02:55:07.818Z,0.00
2023-03-22T02:56:07.818Z,0.00
2023-03-22T02:57:07.835Z,0.00
2023-03-22T02:58:07.782Z,0.00
2023-03-22T02:59:07.798Z,0.00
2023-03-22T03:00:07.761Z,0.00
2023-03-22T03:01:12.886Z,0.00
2023-03-22T03:02:07.853Z,0.00
2023-03-22T03:03:07.728Z,0.00
2023-03-22T03:04:07.721Z,0.00
2023-03-22T03:05:07.725Z,0.00
2023-03-22T03:06:07.721Z,0.00
2023-03-22T03:07:07.698Z,0.00
2023-03-22T03:08:07.668Z,0.00
2023-03-22T03:09:07.655Z,0.00
2023-03-22T03:10:07.646Z,0.00
2023-03-22T03:11:07.661Z,0.00
2023-03-22T03:12:12.661Z,0.00
2023-03-22T03:13:07.616Z,0.00
2023-03-22T03:14:07.604Z,0.00
2023-03-22T03:15:07.589Z,0.00
2023-03-22T03:16:07.681Z,0.00
2023-03-22T03:17:07.624Z,0.00
2023-03-22T03:18:07.553Z,0.00
2023-03-22T03:19:07.550Z,0.00
2023-03-22T03:20:07.531Z,0.00
2023-03-22T03:21:07.522Z,0.00
2023-03-22T03:22:07.542Z,0.00
2023-03-22T03:23:12.558Z,0.00
2023-03-22T03:24:07.487Z,0.00
2023-03-22T03:25:07.480Z,0.00
2023-03-22T03:26:13.818Z,0.00
2023-03-22T03:27:07.466Z,0.00
2023-03-22T03:28:07.445Z,0.00
2023-03-22T03:29:07.447Z,0.00
2023-03-22T03:30:07.427Z,0.00
2023-03-22T03:31:07.408Z,0.00
2023-03-22T03:32:07.424Z,0.00
2023-03-22T03:33:07.388Z,0.00
2023-03-22T03:34:12.404Z,0.00
2023-03-22T03:35:07.401Z,0.00
2023-03-22T03:36:07.359Z,0.00
2023-03-22T03:37:07.359Z,0.00
2023-03-22T03:38:07.357Z,0.00
2023-03-22T03:39:07.321Z,0.00
2023-03-22T03:40:07.307Z,0.00
2023-03-22T03:41:07.336Z,0.00
2023-03-22T03:42:07.304Z,0.00
2023-03-22T03:43:07.302Z,0.00
2023-03-22T03:44:07.267Z,0.00
2023-03-22T03:45:12.272Z,0.00
2023-03-22T03:46:07.270Z,0.00
2023-03-22T03:47:07.251Z,0.00
2023-03-22T03:48:07.426Z,0.00
2023-03-22T03:49:07.207Z,0.00
2023-03-22T03:50:07.193Z,0.00
2023-03-22T03:51:07.183Z,0.00
2023-03-22T03:52:07.188Z,0.00
2023-03-22T03:53:07.178Z,0.00
2023-03-22T03:54:07.172Z,0.00
2023-03-22T03:55:07.148Z,0.00
2023-03-22T03:56:12.169Z,0.00
2023-03-22T03:57:07.126Z,0.00
2023-03-22T03:58:07.106Z,0.00
2023-03-22T03:59:07.113Z,0.00
2023-03-22T04:00:07.087Z,0.00
2023-03-22T04:01:07.094Z,0.00
2023-03-22T04:02:07.122Z,0.00
2023-03-22T04:03:07.052Z,0.00
2023-03-22T04:04:07.118Z,0.00
2023-03-22T04:05:07.042Z,0.00
2023-03-22T04:06:07.017Z,0.00
2023-03-22T04:07:12.039Z,0.00
2023-03-22T04:08:06.997Z,0.00
2023-03-22T04:09:06.982Z,0.00
2023-03-22T04:10:07.002Z,0.00
2023-03-22T04:11:07.028Z,0.00
2023-03-22T04:12:06.959Z,0.00
2023-03-22T04:13:06.945Z,0.00
2023-03-22T04:14:06.934Z,0.00
2023-03-22T04:15:06.938Z,0.00
2023-03-22T04:16:06.908Z,0.00
2023-03-22T04:17:06.956Z,0.00
2023-03-22T04:18:11.923Z,0.00
2023-03-22T04:19:06.874Z,0.00
2023-03-22T04:20:06.872Z,0.00
2023-03-22T04:21:06.852Z,0.00
2023-03-22T04:22:06.851Z,0.00
2023-03-22T04:23:06.899Z,0.00
2023-03-22T04:24:06.832Z,0.00
2023-03-22T04:25:06.812Z,0.00
2023-03-22T04:26:06.817Z,0.00
2023-03-22T04:27:06.818Z,0.00
2023-03-22T04:28:06.775Z,0.00
2023-03-22T04:29:11.787Z,0.00
2023-03-22T04:30:06.770Z,0.00
2023-03-22T04:31:06.781Z,0.00
2023-03-22T04:32:06.752Z,0.00
2023-03-22T04:33:06.716Z,0.00
2023-03-22T04:34:06.719Z,0.00
2023-03-22T04:35:06.708Z,0.00
2023-03-22T04:36:06.704Z,0.00
2023-03-22T04:37:06.680Z,0.00
2023-03-22T04:38:06.661Z,0.00
2023-03-22T04:39:06.650Z,0.00
2023-03-22T04:40:11.660Z,0.00
2023-03-22T04:41:06.640Z,0.00
2023-03-22T04:42:06.661Z,0.00
2023-03-22T04:43:06.618Z,0.00
2023-03-22T04:44:06.609Z,0.00
2023-03-22T04:45:06.661Z,0.00
2023-03-22T04:46:06.591Z,0.00
2023-03-22T04:47:06.572Z,0.00
2023-03-22T04:48:06.613Z,0.00
2023-03-22T04:49:06.542Z,0.00
2023-03-22T04:50:06.566Z,0.00
2023-03-22T04:51:11.539Z,0.00
2023-03-22T04:52:06.533Z,0.00
2023-03-22T04:53:06.498Z,0.00
2023-03-22T04:54:06.501Z,0.00
2023-03-22T04:55:06.472Z,0.00
2023-03-22T04:56:06.460Z,0.00
2023-03-22T04:57:06.455Z,0.00
2023-03-22T04:58:06.475Z,0.00
2023-03-22T04:59:06.432Z,0.00
2023-03-22T05:00:06.442Z,0.00
2023-03-22T05:01:06.409Z,0.00
2023-03-22T05:02:11.415Z,0.00
2023-03-22T05:03:06.496Z,0.00
2023-03-22T05:04:06.379Z,0.00
2023-03-22T05:05:06.361Z,0.00
2023-03-22T05:06:06.378Z,0.00
2023-03-22T05:07:06.344Z,0.00
2023-03-22T05:08:06.335Z,0.00
2023-03-22T05:09:06.315Z,0.00
2023-03-22T05:10:06.321Z,0.00
2023-03-22T05:11:06.293Z,0.00
2023-03-22T05:12:06.308Z,0.00
2023-03-22T05:13:11.320Z,0.00
2023-03-22T05:14:06.337Z,0.00
2023-03-22T05:15:06.244Z,0.00
2023-03-22T05:16:06.309Z,0.00
2023-03-22T05:17:06.225Z,0.00
2023-03-22T05:18:06.258Z,0.00
2023-03-22T05:19:06.203Z,0.00
2023-03-22T05:20:06.203Z,0.00
2023-03-22T05:21:06.192Z,0.00
2023-03-22T05:22:06.167Z,0.00
2023-03-22T05:23:06.165Z,0.00
2023-03-22T05:24:11.197Z,0.00
2023-03-22T05:25:06.133Z,0.00
2023-03-22T05:26:06.125Z,5.62
2023-03-22T05:27:06.120Z,5.62
2023-03-22T05:28:06.123Z,5.62
2023-03-22T05:29:06.117Z,5.62
2023-03-22T05:30:06.098Z,5.62
2023-03-22T05:31:06.093Z,5.62
2023-03-22T05:32:06.057Z,5.62
2023-03-22T05:33:06.066Z,11.25
2023-03-22T05:34:06.042Z,11.25
2023-03-22T05:35:11.046Z,11.25
2023-03-22T05:36:06.039Z,11.25
2023-03-22T05:37:06.004Z,11.25
2023-03-22T05:38:06.004Z,11.25
2023-03-22T05:39:05.990Z,16.88
2023-03-22T05:40:05.971Z,16.88
2023-03-22T05:41:05.959Z,16.88
2023-03-22T05:42:05.979Z,16.88
2023-03-22T05:43:05.954Z,22.50
2023-03-22T05:44:05.936Z,22.50
2023-03-22T05:45:05.940Z,22.50
2023-03-22T05:46:10.937Z,22.50
2023-03-22T05:47:05.985Z,28.12
2023-03-22T05:48:05.971Z,28.12
2023-03-22T05:49:05.874Z,28.12
2023-03-22T05:50:05.872Z,28.12
2023-03-22T05:51:05.855Z,28.12
2023-03-22T05:52:05.851Z,33.75
2023-03-22T05:53:05.850Z,33.75
2023-03-22T05:54:05.838Z,33.75
2023-03-22T05:55:05.807Z,33.75
2023-03-22T05:56:05.798Z,39.38
2023-03-22T05:57:10.805Z,39.38
2023-03-22T05:58:05.784Z,39.38
2023-03-22T05:59:05.762Z,39.38
2023-03-22T06:00:05.782Z,45.00
2023-03-22T06:01:05.765Z,45.00
2023-03-22T06:02:05.789Z,45.00
2023-03-22T06:03:05.775Z,45.00
2023-03-22T06:04:05.715Z,50.62
2023-03-22T06:05:05.696Z,50.62
2023-03-22T06:06:05.711Z,50.62
2023-03-22T06:07:05.674Z,50.62
2023-03-22T06:08:10.689Z,56.25
2023-03-22T06:09:16.525Z,56.25
2023-03-22T06:10:05.652Z,56.25
2023-03-22T06:11:05.638Z,56.25
2023-03-22T06:12:05.638Z,61.88
2023-03-22T06:13:05.723Z,61.88
2023-03-22T06:14:05.598Z,61.88
2023-03-22T06:15:05.586Z,61.88
2023-03-22T06:16:05.655Z,61.88
2023-03-22T06:17:05.613Z,61.88
2023-03-22T06:18:05.589Z,67.50
2023-03-22T06:19:10.568Z,67.50
2023-03-22T06:20:05.532Z,67.50
2023-03-22T06:21:05.535Z,67.50
2023-03-22T06:22:05.506Z,67.50
2023-03-22T06:23:05.496Z,73.12
2023-03-22T06:24:05.520Z,73.12
2023-03-22T06:25:05.481Z,73.12
2023-03-22T06:26:05.460Z,73.12
2023-03-22T06:27:05.474Z,78.75
2023-03-22T06:28:08.546Z,78.75
2023-03-22T06:29:05.448Z,78.75
2023-03-22T06:30:10.478Z,78.75
2023-03-22T06:31:05.480Z,78.75
2023-03-22T06:32:05.406Z,78.75
2023-03-22T06:33:05.432Z,78.75
2023-03-22T06:34:05.378Z,78.75
2023-03-22T06:35:05.377Z,78.75
2023-03-22T06:36:05.400Z,84.38
2023-03-22T06:37:05.335Z,84.38
2023-03-22T06:38:05.321Z,90.00
2023-03-22T06:39:05.315Z,90.00
2023-03-22T06:40:05.301Z,90.00
2023-03-22T06:41:10.321Z,90.00
2023-03-22T06:42:05.286Z,95.62
2023-03-22T06:43:07.225Z,95.62
2023-03-22T06:44:05.261Z,90.00
2023-03-22T06:45:05.265Z,95.62
2023-03-22T06:46:05.271Z,95.62
2023-03-22T06:47:05.239Z,106.88
2023-03-22T06:48:05.248Z,106.88
2023-03-22T06:49:05.241Z,101.25
2023-03-22T06:50:05.186Z,101.25
2023-03-22T06:51:05.185Z,106.88
2023-03-22T06:52:10.186Z,106.88
2023-03-22T06:53:05.179Z,106.88
2023-03-22T06:54:05.204Z,106.88
2023-03-22T06:55:05.133Z,112.50
2023-03-22T06:56:05.126Z,112.50
2023-03-22T06:57:05.111Z,112.50
2023-03-22T06:58:05.101Z,118.12
2023-03-22T06:59:05.103Z,118.12
2023-03-22T07:00:05.298Z,118.12
2023-03-22T07:01:05.077Z,123.75
2023-03-22T07:02:05.047Z,123.75
2023-03-22T07:03:10.065Z,123.75
2023-03-22T07:04:05.159Z,123.75
2023-03-22T07:05:05.047Z,123.75
2023-03-22T07:06:05.024Z,123.75
2023-03-22T07:07:05.001Z,123.75
2023-03-22T07:08:04.990Z,123.75
2023-03-22T07:09:04.985Z,123.75
2023-03-22T07:10:05.004Z,123.75
2023-03-22T07:11:04.976Z,129.38
2023-03-22T07:12:04.963Z,129.38
2023-03-22T07:13:04.941Z,135.00
2023-03-22T07:14:09.957Z,151.88
2023-03-22T07:15:04.909Z,157.50
2023-03-22T07:16:04.928Z,140.62
2023-03-22T07:17:04.892Z,135.00
2023-03-22T07:18:04.882Z,135.00
2023-03-22T07:19:04.907Z,135.00
2023-03-22T07:20:04.851Z,135.00
2023-03-22T07:21:04.874Z,135.00
2023-03-22T07:22:04.877Z,140.62
2023-03-22T07:23:04.815Z,163.12
2023-03-22T07:24:04.832Z,174.38
2023-03-22T07:25:09.886Z,163.12
2023-03-22T07:26:04.820Z,140.62
2023-03-22T07:27:04.770Z,157.50
2023-03-22T07:28:04.759Z,168.75
2023-03-22T07:29:04.758Z,163.12
2023-03-22T07:30:04.735Z,163.12
2023-03-22T07:31:04.760Z,146.25
2023-03-22T07:32:04.759Z,135.00
2023-03-22T07:33:04.716Z,135.00
2023-03-22T07:34:04.692Z,135.00
2023-03-22T07:35:04.697Z,140.62
2023-03-22T07:36:09.723Z,140.62
2023-03-22T07:37:04.665Z,140.62
2023-03-22T07:38:04.666Z,135.00
2023-03-22T07:39:04.650Z,140.62
2023-03-22T07:40:04.697Z,140.62
2023-03-22T07:41:04.627Z,140.62
2023-03-22T07:42:04.636Z,151.88
2023-03-22T07:43:04.597Z,151.88
2023-03-22T07:44:16.997Z,151.88
2023-03-22T07:45:04.650Z,157.50
2023-03-22T07:46:04.591Z,151.88
2023-03-22T07:47:09.863Z,168.75
2023-03-22T07:48:04.558Z,202.50
2023-03-22T07:49:04.549Z,219.38
2023-03-22T07:50:04.887Z,191.25
2023-03-22T07:51:04.511Z,168.75
2023-03-22T07:52:04.528Z,180.00
2023-03-22T07:53:04.492Z,219.38
2023-03-22T07:54:07.157Z,219.38
2023-03-22T07:55:04.484Z,191.25
2023-03-22T07:56:04.550Z,191.25
2023-03-22T07:57:04.467Z,208.12
2023-03-22T07:58:09.454Z,219.38
2023-03-22T07:59:04.459Z,219.38
2023-03-22T08:00:04.498Z,225.00
2023-03-22T08:01:04.419Z,191.25
2023-03-22T08:02:04.438Z,219.38
2023-03-22T08:03:04.437Z,455.62
2023-03-22T08:04:04.391Z,444.38
2023-03-22T08:05:04.366Z,495.00
2023-03-22T08:06:04.383Z,483.75
2023-03-22T08:07:04.330Z,382.50
2023-03-22T08:08:04.341Z,517.50
2023-03-22T08:09:09.333Z,528.75
2023-03-22T08:10:04.608Z,472.50
2023-03-22T08:11:04.285Z,410.62
2023-03-22T08:12:04.273Z,466.88
2023-03-22T08:13:04.263Z,455.62
2023-03-22T08:14:04.251Z,466.88
2023-03-22T08:15:04.255Z,506.25
2023-03-22T08:16:04.261Z,376.88
2023-03-22T08:17:04.258Z,247.50
2023-03-22T08:18:04.213Z,241.88
2023-03-22T08:19:04.196Z,230.62
2023-03-22T08:20:09.256Z,236.25
2023-03-22T08:21:04.173Z,219.38
2023-03-22T08:22:04.180Z,230.62
2023-03-22T08:23:04.154Z,264.38
2023-03-22T08:24:04.170Z,309.38
2023-03-22T08:25:04.140Z,388.12
2023-03-22T08:26:04.117Z,264.38
2023-03-22T08:27:04.107Z,286.88
2023-03-22T08:28:04.104Z,275.62
2023-03-22T08:29:04.081Z,376.88
2023-03-22T08:30:04.083Z,360.00
2023-03-22T08:31:09.085Z,315.00
2023-03-22T08:32:04.159Z,500.62
2023-03-22T08:33:04.039Z,399.38
2023-03-22T08:34:04.060Z,483.75
2023-03-22T08:35:04.026Z,483.75
2023-03-22T08:36:04.001Z,478.12
2023-03-22T08:37:03.991Z,461.25
2023-03-22T08:38:03.981Z,365.62
2023-03-22T08:39:03.973Z,461.25
2023-03-22T08:40:04.003Z,540.00
2023-03-22T08:41:03.954Z,545.62
2023-03-22T08:42:08.960Z,483.75
2023-03-22T08:43:03.926Z,438.75
2023-03-22T08:44:03.940Z,630.00
2023-03-22T08:45:03.901Z,652.50
2023-03-22T08:46:03.952Z,646.88
2023-03-22T08:47:03.889Z,607.50
2023-03-22T08:48:03.924Z,562.50
2023-03-22T08:49:03.856Z,607.50
2023-03-22T08:50:03.844Z,658.12
2023-03-22T08:51:03.843Z,517.50
2023-03-22T08:52:03.858Z,483.75
2023-03-22T08:53:08.865Z,489.38
2023-03-22T08:54:03.807Z,624.38
2023-03-22T08:55:03.800Z,641.25
2023-03-22T08:56:03.803Z,421.88
2023-03-22T08:57:03.807Z,613.12
2023-03-22T08:58:03.777Z,500.62
2023-03-22T08:59:03.832Z,399.38
2023-03-22T09:00:03.736Z,376.88
2023-03-22T09:01:03.876Z,348.75
2023-03-22T09:02:03.846Z,320.62
2023-03-22T09:03:03.702Z,315.00
2023-03-22T09:04:10.609Z,337.50
2023-03-22T09:05:03.687Z,315.00
2023-03-22T09:06:03.676Z,360.00
2023-03-22T09:07:03.718Z,466.88
2023-03-22T09:08:06.621Z,444.38
2023-03-22T09:09:03.636Z,438.75
2023-03-22T09:10:03.645Z,427.50
2023-03-22T09:11:03.625Z,416.25
2023-03-22T09:12:03.626Z,455.62
2023-03-22T09:13:03.590Z,450.00
2023-03-22T09:14:03.578Z,483.75
2023-03-22T09:15:08.592Z,523.12
2023-03-22T09:16:03.660Z,517.50
2023-03-22T09:17:03.548Z,545.62
2023-03-22T09:18:03.544Z,489.38
2023-03-22T09:19:03.544Z,495.00
2023-03-22T09:20:12.471Z,663.75
2023-03-22T09:21:03.568Z,714.38
2023-03-22T09:22:03.509Z,714.38
2023-03-22T09:23:03.479Z,680.62
2023-03-22T09:24:03.475Z,686.25
2023-03-22T09:25:03.451Z,607.50
2023-03-22T09:26:08.474Z,534.38
2023-03-22T09:27:03.439Z,528.75
2023-03-22T09:28:03.450Z,472.50
2023-03-22T09:29:03.411Z,500.62
2023-03-22T09:30:03.416Z,579.38
2023-03-22T09:31:03.449Z,573.75
2023-03-22T09:32:03.372Z,590.62
2023-03-22T09:33:03.362Z,579.38
2023-03-22T09:34:03.363Z,528.75
2023-03-22T09:35:03.344Z,528.75
2023-03-22T09:36:03.427Z,579.38
2023-03-22T09:37:08.350Z,534.38
2023-03-22T09:38:03.310Z,534.38
2023-03-22T09:39:03.295Z,697.50
2023-03-22T09:40:03.300Z,607.50
2023-03-22T09:41:03.290Z,511.88
2023-03-22T09:42:03.268Z,590.62
2023-03-22T09:43:03.258Z,573.75
2023-03-22T09:44:03.294Z,511.88
2023-03-22T09:45:03.252Z,562.50
2023-03-22T09:46:03.317Z,568.12
2023-03-22T09:47:03.211Z,669.38
2023-03-22T09:48:08.316Z,624.38
2023-03-22T09:49:03.187Z,635.62
2023-03-22T09:50:03.183Z,613.12
2023-03-22T09:51:03.164Z,585.00
2023-03-22T09:52:03.214Z,585.00
2023-03-22T09:53:03.140Z,601.88
2023-03-22T09:54:03.127Z,618.75
2023-03-22T09:55:03.117Z,607.50
2023-03-22T09:56:03.104Z,540.00
2023-03-22T09:57:03.104Z,517.50
2023-03-22T09:58:03.101Z,556.88
2023-03-22T09:59:08.113Z,646.88
2023-03-22T10:00:03.063Z,658.12
2023-03-22T10:01:03.317Z,658.12
2023-03-22T10:02:03.341Z,630.00
2023-03-22T10:03:03.030Z,601.88
2023-03-22T10:04:03.078Z,579.38
2023-03-22T10:05:03.040Z,545.62
2023-03-22T10:06:03.003Z,500.62
2023-03-22T10:07:02.992Z,500.62
2023-03-22T10:08:02.977Z,523.12
2023-03-22T10:09:02.966Z,573.75
2023-03-22T10:10:07.991Z,573.75
2023-03-22T10:11:02.936Z,528.75
2023-03-22T10:12:02.934Z,573.75
2023-03-22T10:13:02.927Z,686.25
2023-03-22T10:14:02.905Z,534.38
2023-03-22T10:15:02.910Z,725.62
2023-03-22T10:16:02.964Z,703.12
2023-03-22T10:17:02.881Z,697.50
2023-03-22T10:18:02.885Z,652.50
2023-03-22T10:19:02.856Z,652.50
2023-03-22T10:20:02.860Z,888.75
2023-03-22T10:21:07.868Z,590.62
2023-03-22T10:22:02.840Z,585.00
2023-03-22T10:23:02.799Z,720.00
2023-03-22T10:24:02.793Z,815.62
2023-03-22T10:25:02.803Z,956.25
2023-03-22T10:26:02.783Z,652.50
2023-03-22T10:27:02.768Z,590.62
2023-03-22T10:28:02.758Z,607.50
2023-03-22T10:29:03.789Z,669.38
2023-03-22T10:30:02.735Z,1136.25
2023-03-22T10:31:05.612Z,1451.25
2023-03-22T10:32:07.733Z,1237.50
2023-03-22T10:33:02.686Z,1406.25
2023-03-22T10:34:02.690Z,1018.12
2023-03-22T10:35:02.663Z,708.75
2023-03-22T10:36:02.693Z,511.88
2023-03-22T10:37:02.656Z,461.25
2023-03-22T10:38:02.634Z,438.75
2023-03-22T10:39:02.621Z,483.75
2023-03-22T10:40:02.643Z,1029.38
2023-03-22T10:41:02.602Z,1603.12
2023-03-22T10:42:02.624Z,585.00
2023-03-22T10:43:07.605Z,613.12
2023-03-22T10:44:02.572Z,658.12
2023-03-22T10:45:02.558Z,1366.88
2023-03-22T10:46:02.588Z,2227.50
2023-03-22T10:47:02.661Z,2266.88
2023-03-22T10:48:02.574Z,1946.25
2023-03-22T10:49:02.521Z,1755.00
2023-03-22T10:50:02.503Z,1805.62
2023-03-22T10:51:02.500Z,2407.50
2023-03-22T10:52:02.532Z,2407.50
2023-03-22T10:53:02.469Z,1445.62
2023-03-22T10:54:07.480Z,1991.25
2023-03-22T10:55:04.585Z,1603.12
2023-03-22T10:56:02.442Z,1788.75
2023-03-22T10:57:02.434Z,2126.25
2023-03-22T10:58:02.433Z,2244.38
2023-03-22T10:59:02.406Z,2272.50
2023-03-22T11:00:02.430Z,2671.88
2023-03-22T11:01:02.527Z,2559.38
2023-03-22T11:02:02.541Z,405.00
2023-03-22T11:03:02.396Z,1715.62
2023-03-22T11:04:02.375Z,1501.88
2023-03-22T11:05:07.361Z,1085.62
2023-03-22T11:06:02.361Z,708.75
2023-03-22T11:07:02.323Z,849.38
2023-03-22T11:08:02.305Z,1029.38
2023-03-22T11:09:02.296Z,1400.62
2023-03-22T11:10:02.334Z,1991.25
2023-03-22T11:11:02.269Z,1901.25
2023-03-22T11:12:02.281Z,1608.75
2023-03-22T11:13:02.253Z,2261.25
2023-03-22T11:14:02.236Z,2176.88
2023-03-22T11:15:02.227Z,1957.50
2023-03-22T11:16:07.307Z,1861.88
2023-03-22T11:17:02.220Z,1636.88
2023-03-22T11:18:02.205Z,1293.75
2023-03-22T11:19:02.216Z,1395.00
2023-03-22T11:20:02.271Z,573.75
2023-03-22T11:21:02.160Z,1108.12
2023-03-22T11:22:02.178Z,843.75
2023-03-22T11:23:02.133Z,652.50
2023-03-22T11:24:02.124Z,646.88
2023-03-22T11:25:02.112Z,1648.12
2023-03-22T11:26:02.103Z,1591.88
2023-03-22T11:27:07.128Z,1158.75
2023-03-22T11:28:02.111Z,1406.25
2023-03-22T11:29:02.072Z,2086.88
2023-03-22T11:30:02.063Z,2030.62
2023-03-22T11:31:02.047Z,2041.88
2023-03-22T11:32:02.114Z,2475.00
2023-03-22T11:33:02.167Z,2671.88
2023-03-22T11:34:02.047Z,2705.62
2023-03-22T11:35:02.045Z,2514.38
2023-03-22T11:36:02.149Z,2120.62
2023-03-22T11:37:02.006Z,2098.12
2023-03-22T11:38:07.013Z,2733.75
2023-03-22T11:39:01.967Z,2531.25
2023-03-22T11:40:01.960Z,2840.62
2023-03-22T11:41:01.969Z,2981.25
2023-03-22T11:42:01.977Z,2998.12
2023-03-22T11:43:01.929Z,2806.88
2023-03-22T11:44:01.915Z,2671.88
2023-03-22T11:45:01.922Z,2086.88
2023-03-22T11:46:01.957Z,1884.38
2023-03-22T11:47:01.873Z,1974.38
2023-03-22T11:48:01.987Z,2317.50
2023-03-22T11:49:06.934Z,2587.50
2023-03-22T11:50:01.861Z,2548.12
2023-03-22T11:51:01.867Z,2261.25
2023-03-22T11:52:04.156Z,1518.75
2023-03-22T11:53:01.823Z,624.38
2023-03-22T11:54:01.804Z,708.75
2023-03-22T11:55:01.786Z,1636.88
2023-03-22T11:56:01.777Z,2323.12
2023-03-22T11:57:01.775Z,2126.25
2023-03-22T11:58:01.784Z,2250.00
2023-03-22T11:59:01.739Z,1974.38
2023-03-22T12:00:01.736Z,1873.12
2023-03-22T12:01:01.737Z,343.12
2023-03-22T12:02:06.822Z,568.12
2023-03-22T12:03:01.768Z,866.25
2023-03-22T12:04:01.878Z,826.88
2023-03-22T12:05:01.759Z,1186.88
2023-03-22T12:06:01.708Z,1428.75
2023-03-22T12:07:01.673Z,1715.62
2023-03-22T12:08:01.656Z,2193.75
2023-03-22T12:09:01.628Z,2115.00
2023-03-22T12:10:01.636Z,1766.25
2023-03-22T12:11:01.617Z,1856.25
2023-03-22T12:12:01.607Z,1310.62
2023-03-22T12:13:01.598Z,1091.25
2023-03-22T12:14:01.571Z,973.12
2023-03-22T12:15:06.584Z,1125.00
2023-03-22T12:16:01.681Z,1456.88
2023-03-22T12:17:01.572Z,1710.00
2023-03-22T12:18:01.639Z,1743.75
2023-03-22T12:19:01.524Z,2176.88
2023-03-22T12:20:01.521Z,1923.75
2023-03-22T12:21:01.507Z,2036.25
2023-03-22T12:22:01.528Z,1372.50
2023-03-22T12:23:01.577Z,1350.00
2023-03-22T12:24:01.487Z,1456.88
2023-03-22T12:25:01.456Z,1350.00
2023-03-22T12:26:01.465Z,1378.12
2023-03-22T12:27:01.436Z,1338.75
2023-03-22T12:28:06.492Z,1226.25
2023-03-22T12:29:01.446Z,1209.38
2023-03-22T12:30:01.426Z,1653.75
2023-03-22T12:31:01.431Z,1665.00
2023-03-22T12:32:01.376Z,2345.62
2023-03-22T12:33:01.482Z,1260.00
2023-03-22T12:34:01.461Z,1935.00
2023-03-22T12:35:17.975Z,1755.00
2023-03-22T12:36:02.374Z,1957.50
2023-03-22T12:37:01.325Z,1929.38
2023-03-22T12:38:01.314Z,1726.88
2023-03-22T12:39:06.348Z,1468.12
2023-03-22T12:40:01.342Z,1102.50
2023-03-22T12:41:01.304Z,1254.38
2023-03-22T12:42:01.290Z,2103.75
2023-03-22T12:43:01.252Z,1653.75
2023-03-22T12:44:01.284Z,2064.38
2023-03-22T12:45:05.030Z,2154.38
2023-03-22T12:46:01.280Z,2098.12
2023-03-22T12:47:01.262Z,2036.25